Scammon, Kansas
Current Conditions -  °F | °C
As of 8:35 PM on Saturday 20 Dec 2014 (Local Time) from KPTS Reporting Station
Overcast Overcast  
Wind Chill: 37°   Ceiling: 2000
Heat Index: 43°   Visibility: 10mi
Dew Point: 38°   Wind: 10mph
Humidity: 83%   Direction: 210°SSW
Pressure: 30.17"   Gusts: NA
Location:  37.28°N, 94.82°W
Report Text: KPTS 210235Z AUTO 21009KT 10SM OVC020 06/03 A3017 RMK AO2 T00590032
Loading
Personal Weather Stations






























Interactive Weather Map New forecast layout! Learn more

10-Day Weather Forecast

Advertisements
Track Severe Weather on mobile